Time;durP1;ratioP1;P1;durP2;ratioP2;P2;SDS_P1;SDS_P2;PMS_P1;PMS_P2;Temp;Humidity;BMP_temperature;BMP_pressure;BME280_temperature;BME280_humidity;BME280_pressure;Samples;Min_cycle;Max_cycle;Signal;HPM_P1;HPM_P2
2023/07/02 00:02:03;;;;;;;0.73;0.73;;;;;;;;;;5039303;28;20584;-59
2023/07/02 00:04:30;;;;;;;1.05;0.98;;;;;;;;;;5036369;28;20207;-59
2023/07/02 00:06:57;;;;;;;1.17;1.08;;;;;;;;;;5034936;28;20261;-59
2023/07/02 00:09:25;;;;;;;0.90;0.90;;;;;;;;;;5038233;28;20702;-58
2023/07/02 00:11:52;;;;;;;0.77;0.77;;;;;;;;;;5044832;28;20203;-59
2023/07/02 00:14:19;;;;;;;1.05;1.00;;;;;;;;;;5046841;28;20222;-59
2023/07/02 00:16:47;;;;;;;1.90;0.90;;;;;;;;;;5046798;28;20207;-59
2023/07/02 00:19:15;;;;;;;0.93;0.90;;;;;;;;;;5046039;28;20203;-59
2023/07/02 00:21:42;;;;;;;0.90;0.90;;;;;;;;;;5045467;28;20207;-60
2023/07/02 00:24:10;;;;;;;1.17;0.70;;;;;;;;;;5046321;28;20286;-59
2023/07/02 00:26:38;;;;;;;0.90;0.90;;;;;;;;;;5046006;28;20299;-60
2023/07/02 00:29:06;;;;;;;0.88;0.88;;;;;;;;;;5045756;28;20219;-60
2023/07/02 00:31:33;;;;;;;0.85;0.85;;;;;;;;;;5045653;28;20234;-60
2023/07/02 00:34:01;;;;;;;1.05;0.98;;;;;;;;;;5045919;28;20306;-59
2023/07/02 00:36:28;;;;;;;0.60;0.60;;;;;;;;;;5045089;28;20291;-59
2023/07/02 00:38:55;;;;;;;0.68;0.68;;;;;;;;;;5036825;28;20196;-59
2023/07/02 00:41:28;;;;;;;0.60;0.60;;;;;;;;;;5043942;28;20207;-59
2023/07/02 00:43:55;;;;;;;0.70;0.70;;;;;;;;;;5044486;28;20848;-60
2023/07/02 00:46:24;;;;;;;1.13;0.80;;;;;;;;;;5046245;28;20212;-59
2023/07/02 00:48:52;;;;;;;1.42;0.77;;;;;;;;;;5038022;28;20208;-59
2023/07/02 00:51:21;;;;;;;0.80;0.80;;;;;;;;;;5046274;28;20235;-59
2023/07/02 00:53:48;;;;;;;2.60;0.70;;;;;;;;;;5046033;28;20681;-59
2023/07/02 00:56:15;;;;;;;0.70;0.70;;;;;;;;;;5046603;28;20200;-59
2023/07/02 00:58:46;;;;;;;1.58;0.90;;;;;;;;;;5044316;28;20662;-59
2023/07/02 01:01:13;;;;;;;0.82;0.82;;;;;;;;;;5027945;28;20207;-58
2023/07/02 01:03:40;;;;;;;0.73;0.60;;;;;;;;;;5043990;28;20323;-59
2023/07/02 01:06:08;;;;;;;0.93;0.63;;;;;;;;;;5043857;28;20212;-59
2023/07/02 01:08:36;;;;;;;1.00;1.00;;;;;;;;;;5043650;28;20266;-59
2023/07/02 01:11:03;;;;;;;1.00;1.00;;;;;;;;;;5046106;28;20223;-59
2023/07/02 01:13:30;;;;;;;0.95;0.95;;;;;;;;;;5046495;28;20207;-59
2023/07/02 01:15:57;;;;;;;0.63;0.63;;;;;;;;;;5045567;28;20208;-59
2023/07/02 01:18:24;;;;;;;0.70;0.70;;;;;;;;;;5033902;28;20204;-59
2023/07/02 01:20:54;;;;;;;0.70;0.70;;;;;;;;;;5044423;28;20208;-59
2023/07/02 01:23:21;;;;;;;0.70;0.70;;;;;;;;;;5045708;28;20211;-59
2023/07/02 01:25:48;;;;;;;0.68;0.68;;;;;;;;;;5046240;28;20569;-59
2023/07/02 01:28:16;;;;;;;0.73;0.73;;;;;;;;;;5046234;28;20207;-59
2023/07/02 01:30:43;;;;;;;0.70;0.70;;;;;;;;;;5045672;28;20232;-59
2023/07/02 01:33:10;;;;;;;0.60;0.60;;;;;;;;;;5045030;28;20207;-58
2023/07/02 01:35:37;;;;;;;0.80;0.80;;;;;;;;;;5045226;28;20868;-58
2023/07/02 01:38:05;;;;;;;1.55;0.88;;;;;;;;;;5046228;28;20207;-58
2023/07/02 01:40:32;;;;;;;0.77;0.77;;;;;;;;;;5045780;28;20211;-59
2023/07/02 01:42:59;;;;;;;0.60;0.60;;;;;;;;;;5044588;28;20338;-57
2023/07/02 01:45:26;;;;;;;0.90;0.60;;;;;;;;;;5045068;28;20231;-57
2023/07/02 01:47:53;;;;;;;0.70;0.70;;;;;;;;;;5045035;28;20856;-57
2023/07/02 01:50:21;;;;;;;1.33;1.13;;;;;;;;;;5045351;28;20220;-58
2023/07/02 01:52:48;;;;;;;0.93;0.75;;;;;;;;;;5045755;28;20235;-57
2023/07/02 01:55:17;;;;;;;1.48;0.80;;;;;;;;;;5045160;28;20299;-57
2023/07/02 01:57:44;;;;;;;0.52;0.52;;;;;;;;;;5044592;28;20206;-57
2023/07/02 02:00:12;;;;;;;1.52;0.75;;;;;;;;;;5047977;28;20295;-57
2023/07/02 02:02:39;;;;;;;0.82;0.82;;;;;;;;;;5048644;28;20237;-57
2023/07/02 02:05:07;;;;;;;0.60;0.60;;;;;;;;;;5046684;28;20211;-57
2023/07/02 02:07:35;;;;;;;1.00;1.00;;;;;;;;;;5048383;28;20215;-58
2023/07/02 02:10:02;;;;;;;0.73;0.50;;;;;;;;;;5048712;28;20322;-57
2023/07/02 02:12:31;;;;;;;0.60;0.60;;;;;;;;;;5048952;28;20208;-57
2023/07/02 02:14:58;;;;;;;0.98;0.98;;;;;;;;;;5048517;28;20238;-57
2023/07/02 02:17:25;;;;;;;0.95;0.80;;;;;;;;;;5048583;28;20575;-57
2023/07/02 02:19:52;;;;;;;0.85;0.80;;;;;;;;;;5048103;28;20208;-58
2023/07/02 02:22:19;;;;;;;0.95;0.95;;;;;;;;;;5043857;28;20208;-58
2023/07/02 02:24:46;;;;;;;0.70;0.70;;;;;;;;;;5048813;28;20676;-58
2023/07/02 02:27:13;;;;;;;2.92;0.90;;;;;;;;;;5038409;28;20208;-58
2023/07/02 02:29:41;;;;;;;0.90;0.90;;;;;;;;;;5048669;28;20208;-58
2023/07/02 02:32:09;;;;;;;1.45;1.00;;;;;;;;;;5048041;28;20858;-58
2023/07/02 02:34:37;;;;;;;1.20;1.08;;;;;;;;;;5048205;28;20266;-58
2023/07/02 02:37:04;;;;;;;0.90;0.90;;;;;;;;;;5048620;28;20207;-58
2023/07/02 02:39:31;;;;;;;0.85;0.85;;;;;;;;;;5048461;28;20208;-59
2023/07/02 02:41:58;;;;;;;0.88;0.88;;;;;;;;;;5047744;28;20207;-59
2023/07/02 02:44:25;;;;;;;0.70;0.70;;;;;;;;;;5047822;28;20668;-59
2023/07/02 02:46:53;;;;;;;0.95;0.95;;;;;;;;;;5047567;28;20258;-59
2023/07/02 02:49:20;;;;;;;1.13;1.13;;;;;;;;;;5048633;28;20204;-58
2023/07/02 02:51:47;;;;;;;1.20;1.10;;;;;;;;;;5047987;28;20728;-59
2023/07/02 02:54:14;;;;;;;0.70;0.70;;;;;;;;;;5048074;28;20214;-59
2023/07/02 02:56:41;;;;;;;2.15;1.15;;;;;;;;;;5044325;28;20219;-58
2023/07/02 02:59:08;;;;;;;1.10;1.00;;;;;;;;;;5048027;28;20218;-59
2023/07/02 03:01:35;;;;;;;0.98;0.98;;;;;;;;;;5046387;28;20229;-58
2023/07/02 03:04:04;;;;;;;2.38;1.10;;;;;;;;;;5048507;28;20208;-58
2023/07/02 03:06:31;;;;;;;2.47;1.13;;;;;;;;;;5047253;28;20215;-58
2023/07/02 03:08:58;;;;;;;5.88;0.90;;;;;;;;;;5048006;28;20203;-58
2023/07/02 03:11:25;;;;;;;1.08;1.08;;;;;;;;;;5046337;28;20394;-58
2023/07/02 03:13:52;;;;;;;1.02;1.00;;;;;;;;;;5047466;28;20203;-59
2023/07/02 03:16:21;;;;;;;1.15;1.15;;;;;;;;;;5047418;28;20249;-58
2023/07/02 03:18:48;;;;;;;1.95;1.15;;;;;;;;;;5047425;28;20234;-58
2023/07/02 03:21:16;;;;;;;1.15;1.10;;;;;;;;;;5047835;28;20196;-58
2023/07/02 03:23:44;;;;;;;1.20;1.20;;;;;;;;;;5042752;28;20676;-58
2023/07/02 03:26:11;;;;;;;1.10;1.00;;;;;;;;;;5046099;28;20212;-59
2023/07/02 03:28:38;;;;;;;1.13;0.90;;;;;;;;;;5047528;28;20440;-58
2023/07/02 03:31:05;;;;;;;1.17;1.17;;;;;;;;;;5047096;28;20232;-58
2023/07/02 03:33:33;;;;;;;1.67;1.30;;;;;;;;;;5047435;28;20211;-58
2023/07/02 03:36:00;;;;;;;1.17;1.17;;;;;;;;;;5046210;28;20210;-59
2023/07/02 03:38:29;;;;;;;0.80;0.80;;;;;;;;;;5047109;28;20208;-59
2023/07/02 03:40:56;;;;;;;1.45;1.27;;;;;;;;;;5046265;28;20513;-58
2023/07/02 03:43:24;;;;;;;1.33;1.33;;;;;;;;;;5047084;28;20235;-59
2023/07/02 03:45:51;;;;;;;2.17;1.42;;;;;;;;;;5026637;28;20312;-59
2023/07/02 03:48:18;;;;;;;1.55;1.45;;;;;;;;;;5027107;28;20262;-58
2023/07/02 03:50:45;;;;;;;1.35;1.27;;;;;;;;;;5026937;28;20216;-58
2023/07/02 03:53:12;;;;;;;1.63;1.52;;;;;;;;;;5025964;28;20212;-59
2023/07/02 03:55:41;;;;;;;1.70;1.27;;;;;;;;;;5027091;28;20207;-58
2023/07/02 03:58:08;;;;;;;1.70;1.50;;;;;;;;;;5025481;28;20215;-58
2023/07/02 04:00:35;;;;;;;1.20;1.13;;;;;;;;;;5026505;28;20658;-58
2023/07/02 04:03:03;;;;;;;1.77;1.58;;;;;;;;;;5026953;28;20208;-59
2023/07/02 04:05:30;;;;;;;1.77;1.67;;;;;;;;;;5027043;28;20686;-59
2023/07/02 04:07:57;;;;;;;4.28;1.65;;;;;;;;;;5026340;28;20208;-62
2023/07/02 04:10:24;;;;;;;2.08;1.52;;;;;;;;;;5017365;28;20549;-59
2023/07/02 04:12:52;;;;;;;1.80;1.67;;;;;;;;;;5026569;28;20236;-59
2023/07/02 04:15:19;;;;;;;1.67;1.58;;;;;;;;;;5026711;28;20196;-59
2023/07/02 04:17:46;;;;;;;2.65;1.52;;;;;;;;;;5026791;28;20219;-58
2023/07/02 04:20:13;;;;;;;3.03;1.80;;;;;;;;;;5026068;28;20209;-58
2023/07/02 04:22:40;;;;;;;1.70;1.60;;;;;;;;;;5025553;28;20192;-58
2023/07/02 04:25:08;;;;;;;2.67;2.03;;;;;;;;;;5025668;28;20321;-58
2023/07/02 04:27:35;;;;;;;2.50;1.70;;;;;;;;;;5026008;28;20200;-58
2023/07/02 04:30:05;;;;;;;1.58;1.25;;;;;;;;;;5025843;28;20607;-58
2023/07/02 04:32:32;;;;;;;1.85;1.60;;;;;;;;;;5026018;28;20228;-58
2023/07/02 04:34:59;;;;;;;2.83;1.52;;;;;;;;;;5025055;28;20581;-58
2023/07/02 04:37:27;;;;;;;1.30;1.30;;;;;;;;;;5022555;28;20208;-59
2023/07/02 04:39:54;;;;;;;2.00;1.85;;;;;;;;;;5026485;28;20389;-59
2023/07/02 04:42:21;;;;;;;1.98;1.85;;;;;;;;;;5026708;28;20216;-59
2023/07/02 04:44:48;;;;;;;1.75;1.65;;;;;;;;;;5038101;28;20238;-59
2023/07/02 04:47:17;;;;;;;2.80;1.58;;;;;;;;;;5046382;28;20736;-59
2023/07/02 04:49:44;;;;;;;1.92;1.60;;;;;;;;;;5045662;28;20204;-59
2023/07/02 04:52:11;;;;;;;1.60;1.50;;;;;;;;;;5046070;28;20247;-59
2023/07/02 04:54:38;;;;;;;2.08;1.20;;;;;;;;;;5046235;28;20207;-59
2023/07/02 04:57:05;;;;;;;3.20;1.88;;;;;;;;;;5046628;28;20208;-59
2023/07/02 04:59:32;;;;;;;2.20;2.00;;;;;;;;;;5046619;28;20233;-59
2023/07/02 05:01:59;;;;;;;2.10;1.52;;;;;;;;;;5046280;28;20214;-59
2023/07/02 05:04:27;;;;;;;3.60;1.88;;;;;;;;;;5046181;28;20216;-60
2023/07/02 05:06:54;;;;;;;4.65;2.08;;;;;;;;;;5042117;28;20203;-59
2023/07/02 05:09:21;;;;;;;2.10;1.98;;;;;;;;;;5045812;28;20199;-59
2023/07/02 05:11:48;;;;;;;2.90;2.38;;;;;;;;;;5046564;28;20250;-59
2023/07/02 05:14:15;;;;;;;1.98;1.88;;;;;;;;;;5046010;28;20219;-59
2023/07/02 05:16:42;;;;;;;2.33;2.03;;;;;;;;;;5045899;28;20211;-59
2023/07/02 05:19:09;;;;;;;2.47;2.05;;;;;;;;;;5045485;28;20208;-59
2023/07/02 05:21:38;;;;;;;2.17;1.98;;;;;;;;;;5045499;28;20211;-59
2023/07/02 05:24:05;;;;;;;4.13;2.28;;;;;;;;;;5045967;28;20269;-59
2023/07/02 05:26:32;;;;;;;2.40;2.20;;;;;;;;;;5046564;28;20212;-59
2023/07/02 05:28:59;;;;;;;4.10;2.42;;;;;;;;;;5045424;28;20247;-59
2023/07/02 05:31:26;;;;;;;3.17;2.15;;;;;;;;;;5045136;28;20238;-59
2023/07/02 05:33:54;;;;;;;3.15;2.38;;;;;;;;;;5046867;28;20204;-59
2023/07/02 05:36:21;;;;;;;3.20;2.60;;;;;;;;;;5049281;28;20208;-59
2023/07/02 05:38:50;;;;;;;3.47;2.55;;;;;;;;;;5049348;28;20204;-59
2023/07/02 05:41:19;;;;;;;2.45;2.17;;;;;;;;;;5050179;28;20261;-61
2023/07/02 05:43:46;;;;;;;2.45;2.35;;;;;;;;;;5049732;28;20239;-59
2023/07/02 05:46:14;;;;;;;3.53;2.72;;;;;;;;;;5049390;28;20291;-59
2023/07/02 05:48:41;;;;;;;2.45;2.08;;;;;;;;;;5038817;28;20313;-60
2023/07/02 05:51:08;;;;;;;3.78;2.40;;;;;;;;;;5049392;28;20682;-59
2023/07/02 05:53:36;;;;;;;2.80;2.08;;;;;;;;;;5049457;28;20218;-63
2023/07/02 05:56:04;;;;;;;3.05;2.45;;;;;;;;;;5046588;28;20682;-59
2023/07/02 05:58:31;;;;;;;3.53;2.95;;;;;;;;;;5049422;28;20204;-59
2023/07/02 06:00:58;;;;;;;4.63;3.10;;;;;;;;;;5048611;28;20226;-60
2023/07/02 06:03:25;;;;;;;5.43;3.13;;;;;;;;;;5048259;28;20299;-57
2023/07/02 06:05:52;;;;;;;3.00;2.67;;;;;;;;;;5049029;28;20310;-58
2023/07/02 06:08:20;;;;;;;6.22;3.28;;;;;;;;;;5049398;28;20579;-60
2023/07/02 06:10:47;;;;;;;2.75;2.53;;;;;;;;;;5048982;28;20211;-58
2023/07/02 06:13:16;;;;;;;5.22;2.72;;;;;;;;;;5047973;28;20230;-59
2023/07/02 06:15:43;;;;;;;3.53;2.83;;;;;;;;;;5045379;28;20211;-59
2023/07/02 06:18:10;;;;;;;5.10;2.70;;;;;;;;;;5049371;28;20242;-59
2023/07/02 06:20:37;;;;;;;9.98;2.80;;;;;;;;;;5048424;28;20619;-58
2023/07/02 06:23:04;;;;;;;6.78;3.40;;;;;;;;;;5049572;28;20219;-58
2023/07/02 06:25:31;;;;;;;5.40;3.60;;;;;;;;;;5049397;28;20207;-58
2023/07/02 06:27:58;;;;;;;5.30;3.17;;;;;;;;;;5049314;28;20269;-59
2023/07/02 06:30:27;;;;;;;6.55;3.47;;;;;;;;;;5048176;28;20204;-59
2023/07/02 06:32:55;;;;;;;4.03;3.45;;;;;;;;;;5048975;28;20227;-58
2023/07/02 06:35:22;;;;;;;4.75;3.40;;;;;;;;;;5048896;28;20484;-59
2023/07/02 06:37:49;;;;;;;4.35;3.85;;;;;;;;;;5049460;28;20219;-59
2023/07/02 06:40:16;;;;;;;7.68;3.75;;;;;;;;;;5048898;28;20203;-58
2023/07/02 06:42:43;;;;;;;5.10;3.58;;;;;;;;;;5048842;28;20223;-59
2023/07/02 06:45:10;;;;;;;5.00;3.40;;;;;;;;;;5048411;28;20653;-59
2023/07/02 06:47:39;;;;;;;5.43;3.70;;;;;;;;;;5048219;28;20215;-59
2023/07/02 06:50:06;;;;;;;6.57;3.58;;;;;;;;;;5048754;28;20214;-58
2023/07/02 06:52:33;;;;;;;4.70;3.25;;;;;;;;;;5048372;28;20700;-59
2023/07/02 06:55:00;;;;;;;8.35;3.60;;;;;;;;;;5048589;28;20204;-59
2023/07/02 06:57:27;;;;;;;5.18;3.70;;;;;;;;;;5048129;28;20215;-58
2023/07/02 06:59:59;;;;;;;7.05;3.80;;;;;;;;;;5047012;28;20207;-59
2023/07/02 07:02:26;;;;;;;9.52;4.55;;;;;;;;;;5046841;28;20203;-58
2023/07/02 07:04:54;;;;;;;8.27;4.32;;;;;;;;;;5047899;28;20677;-59
2023/07/02 07:07:21;;;;;;;5.88;4.10;;;;;;;;;;5043257;28;20216;-59
2023/07/02 07:09:48;;;;;;;6.90;3.58;;;;;;;;;;5036973;28;20216;-58
2023/07/02 07:12:15;;;;;;;6.63;4.18;;;;;;;;;;5038525;28;20223;-59
2023/07/02 07:14:43;;;;;;;7.47;4.45;;;;;;;;;;5048512;28;20234;-59
2023/07/02 07:17:10;;;;;;;5.82;3.55;;;;;;;;;;5048346;28;20211;-58
2023/07/02 07:19:37;;;;;;;7.95;4.22;;;;;;;;;;5045570;28;20207;-59
2023/07/02 07:22:06;;;;;;;6.32;4.57;;;;;;;;;;5033951;28;20673;-59
2023/07/02 07:24:33;;;;;;;9.23;4.45;;;;;;;;;;5048616;28;20218;-59
2023/07/02 07:27:00;;;;;;;8.27;4.72;;;;;;;;;;5046977;28;20208;-59
2023/07/02 07:29:27;;;;;;;6.05;4.32;;;;;;;;;;5038384;28;20580;-59
2023/07/02 07:31:54;;;;;;;7.15;3.97;;;;;;;;;;5041373;28;20662;-60
2023/07/02 07:34:21;;;;;;;12.07;5.10;;;;;;;;;;5047562;28;20203;-60
2023/07/02 07:36:48;;;;;;;5.03;3.88;;;;;;;;;;5047744;28;20215;-59
2023/07/02 07:39:16;;;;;;;7.80;4.15;;;;;;;;;;5047429;28;20203;-58
2023/07/02 07:41:48;;;;;;;9.65;4.60;;;;;;;;;;5038415;28;20204;-58
2023/07/02 07:44:15;;;;;;;7.28;4.53;;;;;;;;;;5046816;28;20235;-58
2023/07/02 07:46:42;;;;;;;7.85;4.50;;;;;;;;;;5047201;28;20195;-59
2023/07/02 07:49:09;;;;;;;7.88;4.22;;;;;;;;;;5047445;28;20223;-59
2023/07/02 07:51:36;;;;;;;8.30;4.45;;;;;;;;;;5047418;28;20231;-59
2023/07/02 07:54:03;;;;;;;6.32;4.70;;;;;;;;;;5046593;28;20251;-59
2023/07/02 07:56:32;;;;;;;8.02;4.50;;;;;;;;;;5036506;28;20212;-58
2023/07/02 07:58:59;;;;;;;5.10;3.90;;;;;;;;;;5041139;28;20579;-59
2023/07/02 08:01:28;;;;;;;7.32;4.53;;;;;;;;;;5047356;28;20879;-60
2023/07/02 08:03:55;;;;;;;4.40;4.05;;;;;;;;;;5042289;28;20481;-61
2023/07/02 08:06:22;;;;;;;4.55;4.10;;;;;;;;;;5047015;28;20211;-61
2023/07/02 08:08:49;;;;;;;7.20;4.53;;;;;;;;;;5047758;28;20200;-60
2023/07/02 08:11:16;;;;;;;7.03;4.55;;;;;;;;;;5046477;28;20938;-61
2023/07/02 08:13:45;;;;;;;6.30;3.88;;;;;;;;;;5046833;28;20223;-61
2023/07/02 08:16:13;;;;;;;5.95;4.72;;;;;;;;;;5046653;28;20200;-61
2023/07/02 08:18:40;;;;;;;11.95;4.30;;;;;;;;;;5042270;28;20227;-62
2023/07/02 08:21:07;;;;;;;8.15;4.25;;;;;;;;;;5040793;28;20206;-61
2023/07/02 08:23:34;;;;;;;8.25;3.88;;;;;;;;;;5040935;28;20200;-60
2023/07/02 08:26:02;;;;;;;6.50;4.20;;;;;;;;;;5046558;28;20206;-58
2023/07/02 08:28:29;;;;;;;7.72;4.00;;;;;;;;;;5045829;28;20200;-59
2023/07/02 08:30:59;;;;;;;6.38;4.22;;;;;;;;;;5046497;28;20219;-58
2023/07/02 08:33:26;;;;;;;6.10;3.65;;;;;;;;;;5046222;28;20251;-59
2023/07/02 08:35:53;;;;;;;4.40;4.00;;;;;;;;;;5046138;28;20214;-59
2023/07/02 08:38:20;;;;;;;5.30;4.10;;;;;;;;;;5028401;28;20212;-58
2023/07/02 08:40:47;;;;;;;4.63;4.05;;;;;;;;;;5030686;28;20211;-58
2023/07/02 08:43:14;;;;;;;6.22;4.20;;;;;;;;;;5043980;28;20219;-58
2023/07/02 08:45:42;;;;;;;7.15;4.45;;;;;;;;;;5038518;28;20239;-59
2023/07/02 08:48:11;;;;;;;5.35;4.03;;;;;;;;;;5040569;28;20634;-58
2023/07/02 08:50:39;;;;;;;6.47;3.95;;;;;;;;;;5046252;28;20242;-58
2023/07/02 08:53:06;;;;;;;3.83;3.45;;;;;;;;;;5043683;28;20223;-58
2023/07/02 08:55:33;;;;;;;5.20;3.97;;;;;;;;;;5035996;28;20214;-59
2023/07/02 08:58:00;;;;;;;3.50;3.15;;;;;;;;;;5031074;28;20238;-58
2023/07/02 09:00:27;;;;;;;4.78;3.03;;;;;;;;;;5041298;28;20344;-58
2023/07/02 09:02:54;;;;;;;3.67;3.15;;;;;;;;;;5028779;28;20212;-58
2023/07/02 09:05:23;;;;;;;4.40;3.40;;;;;;;;;;5044104;28;20208;-58
2023/07/02 09:07:50;;;;;;;5.50;3.30;;;;;;;;;;5042401;28;20279;-58
2023/07/02 09:10:27;;;;;;;5.20;3.67;;;;;;;;;;5031783;28;20212;-59
2023/07/02 09:13:04;;;;;;;5.40;3.70;;;;;;;;;;5037821;28;20259;-59
2023/07/02 09:15:36;;;;;;;6.90;3.88;;;;;;;;;;5044945;28;20230;-59
2023/07/02 09:18:03;;;;;;;5.35;4.20;;;;;;;;;;5041289;28;20230;-59
2023/07/02 09:20:35;;;;;;;8.15;4.18;;;;;;;;;;5050158;28;20214;-58
2023/07/02 09:23:02;;;;;;;5.43;3.72;;;;;;;;;;5050216;28;20268;-59
2023/07/02 09:25:35;;;;;;;6.55;4.07;;;;;;;;;;5049415;28;20688;-58
2023/07/02 09:28:02;;;;;;;5.85;3.95;;;;;;;;;;5049689;28;20204;-60
2023/07/02 09:30:29;;;;;;;7.63;4.80;;;;;;;;;;5038651;28;20204;-59
2023/07/02 09:33:07;;;;;;;6.25;3.95;;;;;;;;;;5049438;28;20227;-58
2023/07/02 09:35:36;;;;;;;9.23;4.57;;;;;;;;;;5049482;28;20222;-58
2023/07/02 09:38:03;;;;;;;6.00;4.10;;;;;;;;;;5049959;28;20678;-58
2023/07/02 09:40:30;;;;;;;5.32;3.60;;;;;;;;;;5042886;28;20282;-58
2023/07/02 09:42:59;;;;;;;4.72;4.10;;;;;;;;;;5040224;28;20710;-58
2023/07/02 09:45:26;;;;;;;5.10;3.40;;;;;;;;;;5049037;28;20313;-58
2023/07/02 09:47:55;;;;;;;6.35;3.83;;;;;;;;;;5049918;28;20682;-58
2023/07/02 09:50:22;;;;;;;7.75;4.22;;;;;;;;;;5049545;28;20208;-59
2023/07/02 09:52:51;;;;;;;4.88;3.72;;;;;;;;;;5048788;28;20242;-58
2023/07/02 09:55:18;;;;;;;4.78;3.47;;;;;;;;;;5049076;28;20603;-58
2023/07/02 09:57:46;;;;;;;5.03;3.67;;;;;;;;;;5048934;28;20212;-58
2023/07/02 10:00:13;;;;;;;5.97;4.15;;;;;;;;;;5046898;28;20543;-58
2023/07/02 10:02:40;;;;;;;6.82;3.72;;;;;;;;;;5048130;28;20692;-58
2023/07/02 10:05:08;;;;;;;6.88;3.85;;;;;;;;;;5048558;28;20199;-59
2023/07/02 10:07:35;;;;;;;7.57;3.95;;;;;;;;;;5044512;28;20219;-58
2023/07/02 10:10:03;;;;;;;8.60;4.80;;;;;;;;;;5037634;28;20816;-59
2023/07/02 10:12:31;;;;;;;7.68;4.78;;;;;;;;;;5041284;28;20204;-58
2023/07/02 10:14:58;;;;;;;7.10;4.55;;;;;;;;;;5041002;28;20456;-58
2023/07/02 10:17:27;;;;;;;9.55;4.82;;;;;;;;;;5048388;28;20696;-58
2023/07/02 10:19:54;;;;;;;6.10;4.53;;;;;;;;;;5048086;28;20273;-57
2023/07/02 10:22:22;;;;;;;7.78;4.72;;;;;;;;;;5047529;28;20676;-58
2023/07/02 10:24:53;;;;;;;10.05;4.57;;;;;;;;;;5048933;28;20211;-58
2023/07/02 10:27:22;;;;;;;6.70;4.45;;;;;;;;;;5049388;28;20207;-60
2023/07/02 10:29:52;;;;;;;7.07;5.05;;;;;;;;;;5048357;28;20685;-58
2023/07/02 10:32:28;;;;;;;7.15;4.88;;;;;;;;;;5040031;28;20204;-58
2023/07/02 10:34:56;;;;;;;7.10;4.68;;;;;;;;;;5042374;28;20748;-60
2023/07/02 10:37:23;;;;;;;9.57;5.53;;;;;;;;;;5047647;28;20478;-58
2023/07/02 10:39:51;;;;;;;29.85;10.75;;;;;;;;;;5040720;28;20220;-55
2023/07/02 10:42:18;;;;;;;11.85;6.13;;;;;;;;;;5045737;28;20220;-59
2023/07/02 10:44:52;;;;;;;14.07;6.60;;;;;;;;;;5047267;28;20254;-59
2023/07/02 10:47:19;;;;;;;8.85;4.85;;;;;;;;;;5049052;28;20219;-63
2023/07/02 10:49:46;;;;;;;13.45;6.55;;;;;;;;;;5043373;28;20204;-58
2023/07/02 10:52:13;;;;;;;9.57;4.88;;;;;;;;;;5048722;28;20260;-58
2023/07/02 10:54:42;;;;;;;6.13;4.50;;;;;;;;;;5047521;28;20231;-59
2023/07/02 10:57:09;;;;;;;7.22;4.57;;;;;;;;;;5048046;28;20211;-58
2023/07/02 10:59:36;;;;;;;7.47;4.60;;;;;;;;;;5046231;28;20219;-58
2023/07/02 11:02:04;;;;;;;6.13;4.20;;;;;;;;;;5048535;28;20204;-58
2023/07/02 11:04:32;;;;;;;6.40;4.63;;;;;;;;;;5045911;28;20204;-58
2023/07/02 11:06:59;;;;;;;6.93;5.03;;;;;;;;;;5048023;28;20686;-59
2023/07/02 11:09:26;;;;;;;5.53;4.30;;;;;;;;;;5048264;28;20215;-59
2023/07/02 11:11:54;;;;;;;8.52;5.22;;;;;;;;;;5048080;28;20211;-58
2023/07/02 11:14:28;;;;;;;9.70;5.03;;;;;;;;;;5048055;28;20589;-58
2023/07/02 11:16:56;;;;;;;8.68;5.40;;;;;;;;;;5047588;28;20203;-59
2023/07/02 11:19:24;;;;;;;6.40;4.72;;;;;;;;;;5047727;28;20741;-60
2023/07/02 11:21:52;;;;;;;7.10;4.65;;;;;;;;;;5048492;28;20952;-61
2023/07/02 11:24:28;;;;;;;7.13;4.60;;;;;;;;;;5047835;28;20196;-59
2023/07/02 11:26:55;;;;;;;7.70;4.95;;;;;;;;;;5046282;28;20267;-59
2023/07/02 11:29:22;;;;;;;8.25;5.05;;;;;;;;;;5044514;28;20212;-59
2023/07/02 11:31:49;;;;;;;5.90;4.70;;;;;;;;;;5046287;28;20218;-60
2023/07/02 11:34:17;;;;;;;10.15;5.13;;;;;;;;;;5044827;28;20281;-59
2023/07/02 11:36:45;;;;;;;9.82;4.68;;;;;;;;;;5046615;28;20204;-58
2023/07/02 11:39:13;;;;;;;11.25;5.43;;;;;;;;;;5047785;28;20212;-60
2023/07/02 11:41:41;;;;;;;11.48;5.10;;;;;;;;;;5043501;28;20209;-61
2023/07/02 11:44:08;;;;;;;7.63;4.95;;;;;;;;;;5035732;28;20326;-62
2023/07/02 11:46:36;;;;;;;9.50;5.50;;;;;;;;;;5047233;28;20206;-61
2023/07/02 11:49:08;;;;;;;13.73;5.85;;;;;;;;;;5047780;28;20220;-61
2023/07/02 11:51:36;;;;;;;11.20;4.78;;;;;;;;;;5039792;28;20245;-61
2023/07/02 11:54:08;;;;;;;10.55;5.18;;;;;;;;;;5030353;28;20259;-60
2023/07/02 11:56:35;;;;;;;8.90;5.18;;;;;;;;;;5039539;28;20212;-61
2023/07/02 11:59:02;;;;;;;11.48;5.47;;;;;;;;;;5029135;28;20218;-62
2023/07/02 12:01:29;;;;;;;7.47;5.63;;;;;;;;;;5038734;28;20605;-60
2023/07/02 12:03:59;;;;;;;8.90;5.63;;;;;;;;;;5040477;28;20215;-61
2023/07/02 12:06:26;;;;;;;10.95;5.40;;;;;;;;;;5044122;28;20890;-62
2023/07/02 12:08:53;;;;;;;5.40;4.32;;;;;;;;;;5039679;28;20218;-62
2023/07/02 12:11:21;;;;;;;8.27;5.38;;;;;;;;;;5046494;28;20200;-64
2023/07/02 12:13:48;;;;;;;9.23;5.25;;;;;;;;;;5034222;28;20228;-59
2023/07/02 12:16:15;;;;;;;11.73;5.22;;;;;;;;;;5045459;28;20218;-59
2023/07/02 12:18:42;;;;;;;10.32;6.13;;;;;;;;;;5044448;28;20199;-59
2023/07/02 12:21:09;;;;;;;10.75;5.97;;;;;;;;;;5043832;28;20211;-59
2023/07/02 12:23:36;;;;;;;9.73;5.32;;;;;;;;;;5047278;28;20586;-59
2023/07/02 12:26:03;;;;;;;9.02;5.85;;;;;;;;;;5038279;28;20212;-59
2023/07/02 12:28:32;;;;;;;8.02;5.20;;;;;;;;;;5044621;28;20400;-62
2023/07/02 12:30:59;;;;;;;8.63;4.80;;;;;;;;;;5043225;28;20200;-59
2023/07/02 12:33:26;;;;;;;10.07;5.95;;;;;;;;;;5045119;28;20212;-60
2023/07/02 12:35:53;;;;;;;12.77;5.93;;;;;;;;;;5039239;28;20211;-59
2023/07/02 12:38:22;;;;;;;11.93;6.25;;;;;;;;;;5044443;28;20206;-59
2023/07/02 12:40:51;;;;;;;9.77;5.10;;;;;;;;;;5036010;28;20278;-59
2023/07/02 12:43:19;;;;;;;11.52;5.28;;;;;;;;;;5034360;28;20706;-59
2023/07/02 12:45:48;;;;;;;6.35;4.97;;;;;;;;;;5045789;28;20322;-59
2023/07/02 12:48:16;;;;;;;6.72;4.38;;;;;;;;;;5045535;28;21973;-59
2023/07/02 12:50:43;;;;;;;8.60;4.88;;;;;;;;;;5045133;28;20216;-59
2023/07/02 12:53:10;;;;;;;7.43;4.72;;;;;;;;;;5046290;28;20207;-59
2023/07/02 12:55:37;;;;;;;7.72;5.00;;;;;;;;;;5042666;28;20703;-59
2023/07/02 12:58:04;;;;;;;9.35;5.43;;;;;;;;;;5045374;28;20208;-59
2023/07/02 13:00:31;;;;;;;10.30;5.25;;;;;;;;;;5042707;28;20204;-58
2023/07/02 13:03:00;;;;;;;6.93;4.47;;;;;;;;;;5032829;28;20211;-59
2023/07/02 13:05:27;;;;;;;7.18;4.80;;;;;;;;;;5042602;28;20212;-59
2023/07/02 13:07:54;;;;;;;5.38;4.28;;;;;;;;;;5031830;28;20204;-58
2023/07/02 13:10:21;;;;;;;7.53;4.97;;;;;;;;;;5043605;28;20211;-57
2023/07/02 13:12:48;;;;;;;10.55;4.28;;;;;;;;;;5046283;28;20670;-59
2023/07/02 13:15:15;;;;;;;7.97;4.68;;;;;;;;;;5045673;28;20683;-59
2023/07/02 13:17:43;;;;;;;8.63;4.93;;;;;;;;;;5036850;28;20686;-59
2023/07/02 13:20:12;;;;;;;6.35;4.72;;;;;;;;;;5046030;28;20294;-59
2023/07/02 13:22:39;;;;;;;8.52;4.70;;;;;;;;;;5044385;28;20211;-59
2023/07/02 13:25:06;;;;;;;10.63;5.60;;;;;;;;;;5043726;28;20737;-60
2023/07/02 13:27:33;;;;;;;12.02;5.32;;;;;;;;;;5045160;28;20644;-59
2023/07/02 13:30:00;;;;;;;5.47;4.60;;;;;;;;;;5045731;28;20215;-59
2023/07/02 13:32:28;;;;;;;10.90;5.18;;;;;;;;;;5044353;28;20195;-60
2023/07/02 13:34:55;;;;;;;8.65;4.97;;;;;;;;;;5045432;28;20230;-58
2023/07/02 13:37:23;;;;;;;7.90;4.93;;;;;;;;;;5045001;28;20215;-59
2023/07/02 13:39:51;;;;;;;7.88;5.07;;;;;;;;;;5045552;28;20215;-58
2023/07/02 13:42:18;;;;;;;7.32;5.18;;;;;;;;;;5045242;28;20231;-58
2023/07/02 13:44:45;;;;;;;7.85;5.38;;;;;;;;;;5043066;28;20262;-59
2023/07/02 13:47:12;;;;;;;10.68;5.28;;;;;;;;;;5024722;28;20709;-59
2023/07/02 13:49:39;;;;;;;6.70;5.13;;;;;;;;;;5043080;28;20215;-59
2023/07/02 13:52:06;;;;;;;8.80;5.30;;;;;;;;;;5043890;28;20321;-58
2023/07/02 13:54:35;;;;;;;7.90;4.80;;;;;;;;;;5044989;28;20554;-58
2023/07/02 13:57:02;;;;;;;7.22;4.85;;;;;;;;;;5047241;28;20227;-58
2023/07/02 13:59:30;;;;;;;5.72;4.55;;;;;;;;;;5048349;28;20207;-59
2023/07/02 14:01:57;;;;;;;5.93;4.43;;;;;;;;;;5048163;28;20622;-59
2023/07/02 14:04:24;;;;;;;6.30;4.65;;;;;;;;;;5048687;28;20199;-59
2023/07/02 14:06:51;;;;;;;9.43;5.32;;;;;;;;;;5048828;28;20211;-58
2023/07/02 14:09:18;;;;;;;7.57;4.47;;;;;;;;;;5047422;28;20216;-58
2023/07/02 14:11:45;;;;;;;8.43;4.30;;;;;;;;;;5048195;28;20797;-58
2023/07/02 14:14:12;;;;;;;6.70;4.90;;;;;;;;;;5047742;28;20230;-59
2023/07/02 14:16:42;;;;;;;8.00;4.82;;;;;;;;;;5048318;28;20207;-62
2023/07/02 14:19:09;;;;;;;9.05;5.13;;;;;;;;;;5048213;28;20215;-58
2023/07/02 14:21:36;;;;;;;7.55;4.47;;;;;;;;;;5044646;28;20207;-58
2023/07/02 14:24:03;;;;;;;10.20;5.07;;;;;;;;;;5048230;28;20216;-59
2023/07/02 14:26:31;;;;;;;10.45;5.18;;;;;;;;;;5048425;28;20212;-58
2023/07/02 14:28:58;;;;;;;9.25;4.90;;;;;;;;;;5048104;28;20215;-59
2023/07/02 14:31:25;;;;;;;11.00;5.43;;;;;;;;;;5046867;28;20261;-60
2023/07/02 14:33:54;;;;;;;8.35;5.30;;;;;;;;;;5028539;28;20216;-59
2023/07/02 14:36:21;;;;;;;9.95;5.60;;;;;;;;;;5047469;28;20216;-59
2023/07/02 14:38:48;;;;;;;7.80;4.97;;;;;;;;;;5047612;28;20207;-59
2023/07/02 14:41:15;;;;;;;8.32;4.90;;;;;;;;;;5047245;28;20214;-59
2023/07/02 14:43:42;;;;;;;5.53;4.72;;;;;;;;;;5047595;28;20238;-59